Nunspeet, Netherlands
Current Conditions -  °F | °C
As of 3:55 PM on Wednesday 22 Oct 2014 (Local Time) from EHDL Reporting Station
Broken Clouds Broken Clouds  
Wind Chill: 52°   Ceiling: 5300
Heat Index: 52°   Visibility: 6mi
Dew Point: 43°   Wind: 14mph
Humidity: 71%   Direction: 330°NNW
Pressure: 30.06"   Gusts: NA
Location:  52.38°N, 5.79°E
Report Text: EHDL 221355Z AUTO 33012KT 9999 FEW030 SCT047 BKN053 11/06 Q1018 BLU
Loading
Personal Weather Stations






























Interactive Weather Map
Tropical Storm Tracking
New forecast layout! Learn more

10-Day Weather Forecast

Advertisements
Track Severe Weather on mobile